Forside
METAR-TAF:

METAR-TAF

Lufthavne :

Kokshetau, Kasakhstan

Breddekreds: 53-19-48N, længdekreds: 069-35-48E, højde: 270 m

Aktuelle vejr

Denne rapport blev lavet for 16 minutter siden, kl. 08:00 UTC
Vind 23 kt fra nordvest
Temperatur 0°C
Fugtighed 93%
Tryk 999 hPa
Sigt: 2700 m
Overskyet i en højde af 1000 ft
blæsende sne

METAR: UACK 270800Z 31012MPS 2700 BLSN OVC010 M00/M01 Q0999 R20/650334 NOSIG RMK QFE726/0968

Tid: 14:16 (08:16 UTC)

Vejrudsigter

Denne rapport blev lavet for 3 timer og 16 minutter siden, kl. 05:00 UTC
Foreløbig gælder fra 27 på 06 UTC til 27 på 15 UTC
Vind 19 kt fra vestnordvest
Sigt: 3100 m
Brudte skyer i en højde af 1100 ft, Cumulonimbus.
blæsende sne
Midlertidig
fra 27 på 06 UTC til 27 på 12 UTC
Vind 23 kt fra vest med vindstød på up til 33 kt
Sigt: 1500 m
Brudte skyer i en højde af 600 ft
Brudte skyer i en højde af 700 ft, Cumulonimbus.
snebyger, blæsende sne

TAF: UACK 270500Z 2706/2715 29010MPS 3100 BLSN BKN011CB TEMPO 2706/2712 27012G17MPS 1500 SHSN BLSN BKN006 BKN007CB

Vejrobservationer og prognoser fra mere end 4000 lufthavne (METAR og TAF).

De gule og røde prikker repræsenterer de meteorologiske stationer.

Flyt musen over at se navnet på stationen.

Så klik over at se vejr observationer og prognoser.

At skifte det kort: Klik på de grønne knapper med et sort kors for at zoome ind; på den grønne knap med en bindestreg for at zoome ud; eller på de grønne pile for tilstødende kort.


METAR-TAF: